sensor_id;sensor_type;location;lat;lon;timestamp;P1;durP1;ratioP1;P2;durP2;ratioP2
16025;SDS011;8117;52.488;13.460;2023-04-08T00:00:28;2.10;;;1.70;;
16025;SDS011;8117;52.488;13.460;2023-04-08T00:02:55;2.37;;;1.70;;
16025;SDS011;8117;52.488;13.460;2023-04-08T00:05:22;4.40;;;2.73;;
16025;SDS011;8117;52.488;13.460;2023-04-08T00:17:36;7.43;;;3.13;;
16025;SDS011;8117;52.488;13.460;2023-04-08T00:20:03;3.87;;;2.87;;
16025;SDS011;8117;52.488;13.460;2023-04-08T00:22:30;3.43;;;1.90;;
16025;SDS011;8117;52.488;13.460;2023-04-08T00:24:57;9.93;;;4.80;;
16025;SDS011;8117;52.488;13.460;2023-04-08T00:27:24;5.63;;;2.80;;
16025;SDS011;8117;52.488;13.460;2023-04-08T00:29:53;6.37;;;3.23;;
16025;SDS011;8117;52.488;13.460;2023-04-08T00:32:20;7.10;;;3.83;;
16025;SDS011;8117;52.488;13.460;2023-04-08T00:34:48;4.57;;;2.47;;
16025;SDS011;8117;52.488;13.460;2023-04-08T00:37:15;4.17;;;2.63;;
16025;SDS011;8117;52.488;13.460;2023-04-08T00:39:41;3.47;;;2.07;;
16025;SDS011;8117;52.488;13.460;2023-04-08T00:42:08;3.20;;;2.67;;
16025;SDS011;8117;52.488;13.460;2023-04-08T00:44:35;7.00;;;2.67;;
16025;SDS011;8117;52.488;13.460;2023-04-08T00:47:02;2.93;;;1.90;;
16025;SDS011;8117;52.488;13.460;2023-04-08T00:49:29;5.50;;;2.97;;
16025;SDS011;8117;52.488;13.460;2023-04-08T00:51:57;8.87;;;3.23;;
16025;SDS011;8117;52.488;13.460;2023-04-08T00:54:24;4.40;;;3.27;;
16025;SDS011;8117;52.488;13.460;2023-04-08T00:56:51;5.23;;;3.13;;
16025;SDS011;8117;52.488;13.460;2023-04-08T00:59:18;5.27;;;3.30;;
16025;SDS011;8117;52.488;13.460;2023-04-08T01:01:46;5.83;;;3.50;;
16025;SDS011;8117;52.488;13.460;2023-04-08T01:04:19;6.00;;;4.30;;
16025;SDS011;8117;52.488;13.460;2023-04-08T01:06:54;10.10;;;3.80;;
16025;SDS011;8117;52.488;13.460;2023-04-08T01:09:24;4.27;;;3.27;;
16025;SDS011;8117;52.488;13.460;2023-04-08T01:11:54;11.30;;;3.77;;
16025;SDS011;8117;52.488;13.460;2023-04-08T01:14:22;9.50;;;5.43;;
16025;SDS011;8117;52.488;13.460;2023-04-08T01:16:52;4.77;;;3.37;;
16025;SDS011;8117;52.488;13.460;2023-04-08T01:19:21;8.57;;;3.67;;
16025;SDS011;8117;52.488;13.460;2023-04-08T01:21:53;9.57;;;4.60;;
16025;SDS011;8117;52.488;13.460;2023-04-08T01:24:28;6.40;;;4.17;;
16025;SDS011;8117;52.488;13.460;2023-04-08T01:26:58;7.53;;;4.53;;
16025;SDS011;8117;52.488;13.460;2023-04-08T01:29:30;7.37;;;3.53;;
16025;SDS011;8117;52.488;13.460;2023-04-08T01:31:57;5.10;;;2.63;;
16025;SDS011;8117;52.488;13.460;2023-04-08T01:34:24;7.03;;;3.17;;
16025;SDS011;8117;52.488;13.460;2023-04-08T01:36:51;6.27;;;3.73;;
16025;SDS011;8117;52.488;13.460;2023-04-08T01:39:19;5.67;;;3.23;;
16025;SDS011;8117;52.488;13.460;2023-04-08T01:41:49;8.40;;;4.20;;
16025;SDS011;8117;52.488;13.460;2023-04-08T01:44:20;10.73;;;4.97;;
16025;SDS011;8117;52.488;13.460;2023-04-08T01:46:47;7.33;;;3.50;;
16025;SDS011;8117;52.488;13.460;2023-04-08T01:49:15;6.83;;;3.43;;
16025;SDS011;8117;52.488;13.460;2023-04-08T01:51:42;9.23;;;4.43;;
16025;SDS011;8117;52.488;13.460;2023-04-08T01:54:10;8.60;;;3.43;;
16025;SDS011;8117;52.488;13.460;2023-04-08T01:56:40;9.47;;;4.53;;
16025;SDS011;8117;52.488;13.460;2023-04-08T01:59:09;6.63;;;3.93;;
16025;SDS011;8117;52.488;13.460;2023-04-08T02:01:38;7.40;;;4.63;;
16025;SDS011;8117;52.488;13.460;2023-04-08T02:04:05;9.90;;;6.07;;
16025;SDS011;8117;52.488;13.460;2023-04-08T02:06:38;7.33;;;4.40;;
16025;SDS011;8117;52.488;13.460;2023-04-08T02:09:05;6.67;;;3.80;;
16025;SDS011;8117;52.488;13.460;2023-04-08T02:11:32;8.13;;;4.77;;
16025;SDS011;8117;52.488;13.460;2023-04-08T02:13:59;10.30;;;5.77;;
16025;SDS011;8117;52.488;13.460;2023-04-08T02:16:28;8.53;;;4.13;;
16025;SDS011;8117;52.488;13.460;2023-04-08T02:18:59;5.10;;;4.37;;
16025;SDS011;8117;52.488;13.460;2023-04-08T02:21:32;11.47;;;4.60;;
16025;SDS011;8117;52.488;13.460;2023-04-08T02:24:03;8.30;;;4.30;;
16025;SDS011;8117;52.488;13.460;2023-04-08T02:26:31;9.60;;;4.67;;
16025;SDS011;8117;52.488;13.460;2023-04-08T02:28:59;9.80;;;4.07;;
16025;SDS011;8117;52.488;13.460;2023-04-08T02:31:27;9.53;;;4.40;;
16025;SDS011;8117;52.488;13.460;2023-04-08T02:33:54;16.63;;;5.00;;
16025;SDS011;8117;52.488;13.460;2023-04-08T02:36:22;7.90;;;5.10;;
16025;SDS011;8117;52.488;13.460;2023-04-08T02:38:50;6.30;;;3.10;;
16025;SDS011;8117;52.488;13.460;2023-04-08T02:41:17;11.50;;;3.97;;
16025;SDS011;8117;52.488;13.460;2023-04-08T02:43:44;9.50;;;5.43;;
16025;SDS011;8117;52.488;13.460;2023-04-08T02:46:12;8.37;;;3.60;;
16025;SDS011;8117;52.488;13.460;2023-04-08T02:48:38;12.17;;;4.27;;
16025;SDS011;8117;52.488;13.460;2023-04-08T02:51:08;8.63;;;4.50;;
16025;SDS011;8117;52.488;13.460;2023-04-08T02:53:39;6.80;;;3.83;;
16025;SDS011;8117;52.488;13.460;2023-04-08T02:56:08;8.50;;;5.60;;
16025;SDS011;8117;52.488;13.460;2023-04-08T02:58:38;7.87;;;4.73;;
16025;SDS011;8117;52.488;13.460;2023-04-08T03:01:05;12.70;;;4.67;;
16025;SDS011;8117;52.488;13.460;2023-04-08T03:03:32;10.13;;;5.70;;
16025;SDS011;8117;52.488;13.460;2023-04-08T03:06:00;12.93;;;4.43;;
16025;SDS011;8117;52.488;13.460;2023-04-08T03:08:26;10.83;;;3.53;;
16025;SDS011;8117;52.488;13.460;2023-04-08T03:10:54;13.33;;;5.37;;
16025;SDS011;8117;52.488;13.460;2023-04-08T03:13:23;5.87;;;3.90;;
16025;SDS011;8117;52.488;13.460;2023-04-08T03:15:50;10.67;;;4.10;;
16025;SDS011;8117;52.488;13.460;2023-04-08T03:18:17;9.70;;;5.33;;
16025;SDS011;8117;52.488;13.460;2023-04-08T03:20:44;9.33;;;4.03;;
16025;SDS011;8117;52.488;13.460;2023-04-08T03:23:10;9.57;;;4.47;;
16025;SDS011;8117;52.488;13.460;2023-04-08T03:25:37;10.77;;;4.33;;
16025;SDS011;8117;52.488;13.460;2023-04-08T03:28:05;5.13;;;3.50;;
16025;SDS011;8117;52.488;13.460;2023-04-08T03:30:35;8.33;;;4.67;;
16025;SDS011;8117;52.488;13.460;2023-04-08T03:33:02;10.90;;;4.60;;
16025;SDS011;8117;52.488;13.460;2023-04-08T03:35:31;8.37;;;4.13;;
16025;SDS011;8117;52.488;13.460;2023-04-08T03:37:58;8.63;;;4.23;;
16025;SDS011;8117;52.488;13.460;2023-04-08T03:40:25;17.53;;;5.90;;
16025;SDS011;8117;52.488;13.460;2023-04-08T03:42:52;10.57;;;4.30;;
16025;SDS011;8117;52.488;13.460;2023-04-08T03:45:20;12.07;;;3.87;;
16025;SDS011;8117;52.488;13.460;2023-04-08T03:47:46;7.93;;;2.87;;
16025;SDS011;8117;52.488;13.460;2023-04-08T03:50:13;8.53;;;4.13;;
16025;SDS011;8117;52.488;13.460;2023-04-08T03:52:40;9.70;;;4.63;;
16025;SDS011;8117;52.488;13.460;2023-04-08T03:55:07;8.57;;;4.80;;
16025;SDS011;8117;52.488;13.460;2023-04-08T03:57:34;9.20;;;5.20;;
16025;SDS011;8117;52.488;13.460;2023-04-08T04:00:01;15.20;;;4.07;;
16025;SDS011;8117;52.488;13.460;2023-04-08T04:02:29;10.40;;;5.13;;
16025;SDS011;8117;52.488;13.460;2023-04-08T04:04:56;6.17;;;3.07;;
16025;SDS011;8117;52.488;13.460;2023-04-08T04:07:23;8.10;;;4.77;;
16025;SDS011;8117;52.488;13.460;2023-04-08T04:09:49;8.97;;;5.63;;
16025;SDS011;8117;52.488;13.460;2023-04-08T04:12:21;8.80;;;3.57;;
16025;SDS011;8117;52.488;13.460;2023-04-08T04:14:48;15.13;;;6.57;;
16025;SDS011;8117;52.488;13.460;2023-04-08T04:17:15;5.90;;;3.27;;
16025;SDS011;8117;52.488;13.460;2023-04-08T04:19:43;16.30;;;6.73;;
16025;SDS011;8117;52.488;13.460;2023-04-08T04:22:13;20.30;;;6.57;;
16025;SDS011;8117;52.488;13.460;2023-04-08T04:24:39;13.20;;;5.33;;
16025;SDS011;8117;52.488;13.460;2023-04-08T04:27:06;11.17;;;5.00;;
16025;SDS011;8117;52.488;13.460;2023-04-08T04:29:35;10.53;;;4.93;;
16025;SDS011;8117;52.488;13.460;2023-04-08T04:32:03;11.37;;;4.27;;
16025;SDS011;8117;52.488;13.460;2023-04-08T04:34:30;10.77;;;5.30;;
16025;SDS011;8117;52.488;13.460;2023-04-08T04:36:59;7.90;;;4.37;;
16025;SDS011;8117;52.488;13.460;2023-04-08T04:39:25;12.93;;;6.27;;
16025;SDS011;8117;52.488;13.460;2023-04-08T04:41:52;11.40;;;4.43;;
16025;SDS011;8117;52.488;13.460;2023-04-08T04:44:19;14.53;;;5.83;;
16025;SDS011;8117;52.488;13.460;2023-04-08T04:46:45;8.73;;;4.47;;
16025;SDS011;8117;52.488;13.460;2023-04-08T04:49:12;11.00;;;5.07;;
16025;SDS011;8117;52.488;13.460;2023-04-08T04:51:39;12.00;;;4.87;;
16025;SDS011;8117;52.488;13.460;2023-04-08T04:54:07;12.07;;;5.77;;
16025;SDS011;8117;52.488;13.460;2023-04-08T04:56:36;10.87;;;4.50;;
16025;SDS011;8117;52.488;13.460;2023-04-08T04:59:05;7.80;;;4.17;;
16025;SDS011;8117;52.488;13.460;2023-04-08T05:01:32;9.93;;;4.77;;
16025;SDS011;8117;52.488;13.460;2023-04-08T05:04:03;7.47;;;4.57;;
16025;SDS011;8117;52.488;13.460;2023-04-08T05:06:30;10.43;;;4.43;;
16025;SDS011;8117;52.488;13.460;2023-04-08T05:08:59;8.33;;;5.33;;
16025;SDS011;8117;52.488;13.460;2023-04-08T05:11:27;8.63;;;4.50;;
16025;SDS011;8117;52.488;13.460;2023-04-08T05:13:53;9.87;;;5.83;;
16025;SDS011;8117;52.488;13.460;2023-04-08T05:16:20;10.17;;;4.20;;
16025;SDS011;8117;52.488;13.460;2023-04-08T05:18:52;8.87;;;5.07;;
16025;SDS011;8117;52.488;13.460;2023-04-08T05:21:21;11.70;;;5.53;;
16025;SDS011;8117;52.488;13.460;2023-04-08T05:23:48;10.17;;;6.60;;
16025;SDS011;8117;52.488;13.460;2023-04-08T05:26:17;17.33;;;5.40;;
16025;SDS011;8117;52.488;13.460;2023-04-08T05:28:45;5.97;;;3.57;;
16025;SDS011;8117;52.488;13.460;2023-04-08T05:31:11;11.03;;;5.80;;
16025;SDS011;8117;52.488;13.460;2023-04-08T05:33:41;8.53;;;4.77;;
16025;SDS011;8117;52.488;13.460;2023-04-08T05:36:07;11.27;;;5.60;;
16025;SDS011;8117;52.488;13.460;2023-04-08T05:38:34;11.17;;;5.67;;
16025;SDS011;8117;52.488;13.460;2023-04-08T05:41:01;18.63;;;5.53;;
16025;SDS011;8117;52.488;13.460;2023-04-08T05:43:29;12.00;;;5.17;;
16025;SDS011;8117;52.488;13.460;2023-04-08T05:46:04;10.97;;;6.50;;
16025;SDS011;8117;52.488;13.460;2023-04-08T05:48:31;5.97;;;5.23;;
16025;SDS011;8117;52.488;13.460;2023-04-08T05:50:58;13.43;;;4.87;;
16025;SDS011;8117;52.488;13.460;2023-04-08T05:53:24;14.70;;;6.37;;
16025;SDS011;8117;52.488;13.460;2023-04-08T05:55:51;6.23;;;4.73;;
16025;SDS011;8117;52.488;13.460;2023-04-08T05:58:21;9.63;;;4.73;;
16025;SDS011;8117;52.488;13.460;2023-04-08T06:00:50;9.20;;;4.83;;
16025;SDS011;8117;52.488;13.460;2023-04-08T06:03:23;13.43;;;6.37;;
16025;SDS011;8117;52.488;13.460;2023-04-08T06:05:50;13.17;;;6.43;;
16025;SDS011;8117;52.488;13.460;2023-04-08T06:08:17;14.63;;;6.43;;
16025;SDS011;8117;52.488;13.460;2023-04-08T06:10:47;22.70;;;6.13;;
16025;SDS011;8117;52.488;13.460;2023-04-08T06:13:15;11.63;;;6.10;;
16025;SDS011;8117;52.488;13.460;2023-04-08T06:15:45;16.60;;;5.93;;
16025;SDS011;8117;52.488;13.460;2023-04-08T06:18:12;11.60;;;7.17;;
16025;SDS011;8117;52.488;13.460;2023-04-08T06:20:41;10.47;;;5.63;;
16025;SDS011;8117;52.488;13.460;2023-04-08T06:23:08;10.93;;;6.43;;
16025;SDS011;8117;52.488;13.460;2023-04-08T06:25:35;14.63;;;7.07;;
16025;SDS011;8117;52.488;13.460;2023-04-08T06:28:02;15.33;;;5.63;;
16025;SDS011;8117;52.488;13.460;2023-04-08T06:30:28;15.67;;;5.37;;
16025;SDS011;8117;52.488;13.460;2023-04-08T06:33:06;10.63;;;5.13;;
16025;SDS011;8117;52.488;13.460;2023-04-08T06:35:33;14.27;;;6.27;;
16025;SDS011;8117;52.488;13.460;2023-04-08T06:38:02;13.07;;;7.90;;
16025;SDS011;8117;52.488;13.460;2023-04-08T06:40:29;11.50;;;5.70;;
16025;SDS011;8117;52.488;13.460;2023-04-08T06:42:56;7.17;;;4.70;;
16025;SDS011;8117;52.488;13.460;2023-04-08T06:45:26;16.73;;;6.37;;
16025;SDS011;8117;52.488;13.460;2023-04-08T06:47:53;22.70;;;6.30;;
16025;SDS011;8117;52.488;13.460;2023-04-08T06:50:32;12.87;;;5.10;;
16025;SDS011;8117;52.488;13.460;2023-04-08T06:53:17;13.10;;;6.87;;
16025;SDS011;8117;52.488;13.460;2023-04-08T06:55:44;15.73;;;6.13;;
16025;SDS011;8117;52.488;13.460;2023-04-08T06:58:13;16.47;;;7.73;;
16025;SDS011;8117;52.488;13.460;2023-04-08T07:00:40;15.83;;;6.27;;
16025;SDS011;8117;52.488;13.460;2023-04-08T07:03:09;19.43;;;6.40;;
16025;SDS011;8117;52.488;13.460;2023-04-08T07:05:35;13.73;;;6.70;;
16025;SDS011;8117;52.488;13.460;2023-04-08T07:08:02;11.27;;;6.80;;
16025;SDS011;8117;52.488;13.460;2023-04-08T07:10:31;12.97;;;4.87;;
16025;SDS011;8117;52.488;13.460;2023-04-08T07:12:57;9.10;;;5.27;;
16025;SDS011;8117;52.488;13.460;2023-04-08T07:15:24;9.73;;;5.73;;
16025;SDS011;8117;52.488;13.460;2023-04-08T07:17:50;9.67;;;4.87;;
16025;SDS011;8117;52.488;13.460;2023-04-08T07:20:20;11.63;;;5.23;;
16025;SDS011;8117;52.488;13.460;2023-04-08T07:23:40;8.80;;;5.13;;
16025;SDS011;8117;52.488;13.460;2023-04-08T07:26:01;15.67;;;5.57;;
16025;SDS011;8117;52.488;13.460;2023-04-08T07:28:30;11.83;;;6.30;;
16025;SDS011;8117;52.488;13.460;2023-04-08T07:31:07;18.50;;;6.40;;
16025;SDS011;8117;52.488;13.460;2023-04-08T07:33:36;12.83;;;6.60;;
16025;SDS011;8117;52.488;13.460;2023-04-08T07:36:03;17.90;;;5.73;;
16025;SDS011;8117;52.488;13.460;2023-04-08T07:38:30;14.57;;;6.33;;
16025;SDS011;8117;52.488;13.460;2023-04-08T07:40:57;9.30;;;6.13;;
16025;SDS011;8117;52.488;13.460;2023-04-08T07:43:25;12.53;;;6.03;;
16025;SDS011;8117;52.488;13.460;2023-04-08T07:45:52;13.83;;;5.97;;
16025;SDS011;8117;52.488;13.460;2023-04-08T07:48:26;15.13;;;6.37;;
16025;SDS011;8117;52.488;13.460;2023-04-08T07:50:53;18.20;;;7.47;;
16025;SDS011;8117;52.488;13.460;2023-04-08T07:53:20;9.00;;;5.03;;
16025;SDS011;8117;52.488;13.460;2023-04-08T07:55:46;18.63;;;5.63;;
16025;SDS011;8117;52.488;13.460;2023-04-08T07:58:15;11.60;;;7.50;;
16025;SDS011;8117;52.488;13.460;2023-04-08T08:00:43;9.17;;;5.57;;
16025;SDS011;8117;52.488;13.460;2023-04-08T08:03:10;12.93;;;5.43;;
16025;SDS011;8117;52.488;13.460;2023-04-08T08:06:51;16.53;;;6.00;;
16025;SDS011;8117;52.488;13.460;2023-04-08T08:09:05;10.00;;;5.80;;
16025;SDS011;8117;52.488;13.460;2023-04-08T08:11:46;11.23;;;6.10;;
16025;SDS011;8117;52.488;13.460;2023-04-08T08:15:24;12.13;;;5.90;;
16025;SDS011;8117;52.488;13.460;2023-04-08T08:17:38;11.30;;;5.40;;
16025;SDS011;8117;52.488;13.460;2023-04-08T08:20:08;9.10;;;5.70;;
16025;SDS011;8117;52.488;13.460;2023-04-08T08:22:36;13.67;;;7.17;;
16025;SDS011;8117;52.488;13.460;2023-04-08T08:25:03;9.77;;;5.60;;
16025;SDS011;8117;52.488;13.460;2023-04-08T08:27:31;9.77;;;4.67;;
16025;SDS011;8117;52.488;13.460;2023-04-08T08:29:59;13.83;;;6.43;;
16025;SDS011;8117;52.488;13.460;2023-04-08T08:32:34;9.10;;;5.13;;
16025;SDS011;8117;52.488;13.460;2023-04-08T08:35:01;13.00;;;5.77;;
16025;SDS011;8117;52.488;13.460;2023-04-08T08:37:28;10.33;;;7.13;;
16025;SDS011;8117;52.488;13.460;2023-04-08T08:39:57;15.87;;;6.33;;
16025;SDS011;8117;52.488;13.460;2023-04-08T08:42:25;9.83;;;5.47;;
16025;SDS011;8117;52.488;13.460;2023-04-08T08:44:51;13.50;;;6.83;;
16025;SDS011;8117;52.488;13.460;2023-04-08T08:47:20;9.67;;;5.03;;
16025;SDS011;8117;52.488;13.460;2023-04-08T08:50:00;11.60;;;6.50;;
16025;SDS011;8117;52.488;13.460;2023-04-08T08:52:29;9.93;;;5.43;;
16025;SDS011;8117;52.488;13.460;2023-04-08T08:54:59;11.97;;;5.40;;
16025;SDS011;8117;52.488;13.460;2023-04-08T08:57:29;13.17;;;5.60;;
16025;SDS011;8117;52.488;13.460;2023-04-08T08:59:56;11.27;;;5.60;;
16025;SDS011;8117;52.488;13.460;2023-04-08T09:02:28;8.83;;;5.30;;
16025;SDS011;8117;52.488;13.460;2023-04-08T09:05:03;8.67;;;5.27;;
16025;SDS011;8117;52.488;13.460;2023-04-08T09:07:34;8.17;;;4.40;;
16025;SDS011;8117;52.488;13.460;2023-04-08T09:10:04;9.13;;;4.10;;
16025;SDS011;8117;52.488;13.460;2023-04-08T09:12:34;13.03;;;5.30;;
16025;SDS011;8117;52.488;13.460;2023-04-08T09:15:04;15.97;;;6.30;;
16025;SDS011;8117;52.488;13.460;2023-04-08T09:17:40;14.00;;;5.77;;
16025;SDS011;8117;52.488;13.460;2023-04-08T09:20:10;12.70;;;4.73;;
16025;SDS011;8117;52.488;13.460;2023-04-08T09:25:28;8.70;;;4.30;;
16025;SDS011;8117;52.488;13.460;2023-04-08T09:27:56;6.93;;;4.73;;
16025;SDS011;8117;52.488;13.460;2023-04-08T09:30:23;9.60;;;5.37;;
16025;SDS011;8117;52.488;13.460;2023-04-08T09:32:52;13.30;;;5.20;;
16025;SDS011;8117;52.488;13.460;2023-04-08T09:35:21;8.40;;;4.83;;
16025;SDS011;8117;52.488;13.460;2023-04-08T09:37:53;8.83;;;5.20;;
16025;SDS011;8117;52.488;13.460;2023-04-08T09:40:23;12.70;;;6.43;;
16025;SDS011;8117;52.488;13.460;2023-04-08T09:42:50;9.23;;;5.00;;
16025;SDS011;8117;52.488;13.460;2023-04-08T09:45:18;11.30;;;4.20;;
16025;SDS011;8117;52.488;13.460;2023-04-08T09:47:55;9.83;;;4.13;;
16025;SDS011;8117;52.488;13.460;2023-04-08T09:50:25;8.63;;;5.53;;
16025;SDS011;8117;52.488;13.460;2023-04-08T09:53:01;10.70;;;5.40;;
16025;SDS011;8117;52.488;13.460;2023-04-08T09:55:35;9.93;;;5.37;;
16025;SDS011;8117;52.488;13.460;2023-04-08T09:58:07;9.37;;;6.27;;
16025;SDS011;8117;52.488;13.460;2023-04-08T10:00:43;9.60;;;5.07;;
16025;SDS011;8117;52.488;13.460;2023-04-08T10:03:36;9.13;;;4.37;;
16025;SDS011;8117;52.488;13.460;2023-04-08T10:06:07;8.23;;;5.07;;
16025;SDS011;8117;52.488;13.460;2023-04-08T10:08:34;7.97;;;5.23;;
16025;SDS011;8117;52.488;13.460;2023-04-08T10:11:01;10.87;;;4.90;;
16025;SDS011;8117;52.488;13.460;2023-04-08T10:13:28;8.83;;;5.80;;
16025;SDS011;8117;52.488;13.460;2023-04-08T10:18:43;12.57;;;4.97;;
16025;SDS011;8117;52.488;13.460;2023-04-08T10:24:12;7.07;;;4.43;;
16025;SDS011;8117;52.488;13.460;2023-04-08T10:26:40;8.67;;;4.73;;
16025;SDS011;8117;52.488;13.460;2023-04-08T10:32:27;5.83;;;4.33;;
16025;SDS011;8117;52.488;13.460;2023-04-08T10:34:55;9.10;;;4.03;;
16025;SDS011;8117;52.488;13.460;2023-04-08T10:37:33;8.67;;;4.10;;
16025;SDS011;8117;52.488;13.460;2023-04-08T10:40:09;12.23;;;5.90;;
16025;SDS011;8117;52.488;13.460;2023-04-08T10:42:46;10.23;;;5.90;;
16025;SDS011;8117;52.488;13.460;2023-04-08T10:45:15;5.50;;;3.30;;
16025;SDS011;8117;52.488;13.460;2023-04-08T10:47:46;13.73;;;4.73;;
16025;SDS011;8117;52.488;13.460;2023-04-08T10:50:14;9.87;;;5.80;;
16025;SDS011;8117;52.488;13.460;2023-04-08T10:52:47;12.40;;;4.70;;
16025;SDS011;8117;52.488;13.460;2023-04-08T10:55:15;6.90;;;3.20;;
16025;SDS011;8117;52.488;13.460;2023-04-08T10:57:42;10.63;;;4.87;;
16025;SDS011;8117;52.488;13.460;2023-04-08T11:00:30;6.27;;;3.70;;
16025;SDS011;8117;52.488;13.460;2023-04-08T11:03:07;6.73;;;3.67;;
16025;SDS011;8117;52.488;13.460;2023-04-08T11:05:38;9.50;;;5.27;;
16025;SDS011;8117;52.488;13.460;2023-04-08T11:08:10;9.10;;;4.33;;
16025;SDS011;8117;52.488;13.460;2023-04-08T11:10:38;9.23;;;5.10;;
16025;SDS011;8117;52.488;13.460;2023-04-08T11:13:05;8.23;;;4.43;;
16025;SDS011;8117;52.488;13.460;2023-04-08T11:15:35;9.87;;;4.50;;
16025;SDS011;8117;52.488;13.460;2023-04-08T11:18:06;5.80;;;3.10;;
16025;SDS011;8117;52.488;13.460;2023-04-08T11:20:37;8.27;;;3.90;;
16025;SDS011;8117;52.488;13.460;2023-04-08T11:23:37;7.50;;;3.87;;
16025;SDS011;8117;52.488;13.460;2023-04-08T11:26:20;5.90;;;3.17;;
16025;SDS011;8117;52.488;13.460;2023-04-08T11:29:07;5.30;;;3.13;;
16025;SDS011;8117;52.488;13.460;2023-04-08T11:31:42;6.13;;;3.10;;
16025;SDS011;8117;52.488;13.460;2023-04-08T11:34:21;6.60;;;3.83;;
16025;SDS011;8117;52.488;13.460;2023-04-08T11:36:48;6.37;;;3.37;;
16025;SDS011;8117;52.488;13.460;2023-04-08T11:39:21;8.93;;;4.60;;
16025;SDS011;8117;52.488;13.460;2023-04-08T11:41:51;9.40;;;4.27;;
16025;SDS011;8117;52.488;13.460;2023-04-08T11:44:21;5.97;;;3.30;;
16025;SDS011;8117;52.488;13.460;2023-04-08T11:46:55;8.60;;;4.10;;
16025;SDS011;8117;52.488;13.460;2023-04-08T11:49:26;9.30;;;3.87;;
16025;SDS011;8117;52.488;13.460;2023-04-08T11:51:55;6.60;;;3.60;;
16025;SDS011;8117;52.488;13.460;2023-04-08T11:54:25;5.30;;;3.13;;
16025;SDS011;8117;52.488;13.460;2023-04-08T11:56:57;8.13;;;3.97;;
16025;SDS011;8117;52.488;13.460;2023-04-08T11:59:25;6.20;;;3.57;;
16025;SDS011;8117;52.488;13.460;2023-04-08T12:01:52;5.07;;;2.80;;
16025;SDS011;8117;52.488;13.460;2023-04-08T12:04:23;5.10;;;2.87;;
16025;SDS011;8117;52.488;13.460;2023-04-08T12:06:51;4.87;;;2.90;;
16025;SDS011;8117;52.488;13.460;2023-04-08T12:09:18;4.30;;;2.60;;
16025;SDS011;8117;52.488;13.460;2023-04-08T12:11:45;5.07;;;3.07;;
16025;SDS011;8117;52.488;13.460;2023-04-08T12:14:19;3.50;;;2.20;;
16025;SDS011;8117;52.488;13.460;2023-04-08T12:16:49;3.57;;;2.70;;
16025;SDS011;8117;52.488;13.460;2023-04-08T12:19:25;4.00;;;2.17;;
16025;SDS011;8117;52.488;13.460;2023-04-08T12:21:55;6.30;;;2.50;;
16025;SDS011;8117;52.488;13.460;2023-04-08T12:24:22;4.33;;;3.17;;
16025;SDS011;8117;52.488;13.460;2023-04-08T12:26:48;3.80;;;2.73;;
16025;SDS011;8117;52.488;13.460;2023-04-08T12:29:23;3.83;;;2.30;;
16025;SDS011;8117;52.488;13.460;2023-04-08T12:31:53;6.33;;;3.13;;
16025;SDS011;8117;52.488;13.460;2023-04-08T12:34:20;5.63;;;2.70;;
16025;SDS011;8117;52.488;13.460;2023-04-08T12:36:47;4.87;;;1.93;;
16025;SDS011;8117;52.488;13.460;2023-04-08T12:39:14;5.57;;;3.17;;
16025;SDS011;8117;52.488;13.460;2023-04-08T12:41:41;2.67;;;2.17;;
16025;SDS011;8117;52.488;13.460;2023-04-08T12:44:07;3.60;;;2.17;;
16025;SDS011;8117;52.488;13.460;2023-04-08T12:46:38;6.70;;;2.13;;
16025;SDS011;8117;52.488;13.460;2023-04-08T12:49:05;5.73;;;2.63;;
16025;SDS011;8117;52.488;13.460;2023-04-08T12:51:31;4.23;;;2.63;;
16025;SDS011;8117;52.488;13.460;2023-04-08T12:53:58;4.67;;;3.03;;
16025;SDS011;8117;52.488;13.460;2023-04-08T12:56:26;3.40;;;2.23;;
16025;SDS011;8117;52.488;13.460;2023-04-08T12:58:55;4.53;;;2.20;;
16025;SDS011;8117;52.488;13.460;2023-04-08T13:01:22;3.77;;;2.20;;
16025;SDS011;8117;52.488;13.460;2023-04-08T13:03:51;2.47;;;2.10;;
16025;SDS011;8117;52.488;13.460;2023-04-08T13:06:24;3.50;;;2.07;;
16025;SDS011;8117;52.488;13.460;2023-04-08T13:08:51;3.27;;;1.93;;
16025;SDS011;8117;52.488;13.460;2023-04-08T13:11:24;4.40;;;2.07;;
16025;SDS011;8117;52.488;13.460;2023-04-08T13:13:52;5.70;;;3.13;;
16025;SDS011;8117;52.488;13.460;2023-04-08T13:16:22;5.43;;;2.20;;
16025;SDS011;8117;52.488;13.460;2023-04-08T13:18:49;4.20;;;2.60;;
16025;SDS011;8117;52.488;13.460;2023-04-08T13:21:17;4.63;;;2.70;;
16025;SDS011;8117;52.488;13.460;2023-04-08T13:23:44;3.60;;;2.40;;
16025;SDS011;8117;52.488;13.460;2023-04-08T13:26:14;4.03;;;2.30;;
16025;SDS011;8117;52.488;13.460;2023-04-08T13:28:40;4.30;;;2.53;;
16025;SDS011;8117;52.488;13.460;2023-04-08T13:31:11;4.83;;;3.07;;
16025;SDS011;8117;52.488;13.460;2023-04-08T13:33:38;4.97;;;2.60;;
16025;SDS011;8117;52.488;13.460;2023-04-08T13:36:08;4.87;;;2.90;;
16025;SDS011;8117;52.488;13.460;2023-04-08T13:38:44;3.77;;;2.03;;
16025;SDS011;8117;52.488;13.460;2023-04-08T13:41:16;4.97;;;2.73;;
16025;SDS011;8117;52.488;13.460;2023-04-08T13:43:46;2.80;;;2.30;;
16025;SDS011;8117;52.488;13.460;2023-04-08T13:46:14;4.53;;;3.03;;
16025;SDS011;8117;52.488;13.460;2023-04-08T13:48:42;4.27;;;2.63;;
16025;SDS011;8117;52.488;13.460;2023-04-08T13:51:10;3.80;;;2.40;;
16025;SDS011;8117;52.488;13.460;2023-04-08T13:53:48;4.67;;;3.03;;
16025;SDS011;8117;52.488;13.460;2023-04-08T13:56:24;4.07;;;2.13;;
16025;SDS011;8117;52.488;13.460;2023-04-08T13:58:53;3.67;;;2.23;;
16025;SDS011;8117;52.488;13.460;2023-04-08T14:01:24;3.23;;;2.27;;
16025;SDS011;8117;52.488;13.460;2023-04-08T14:07:01;4.03;;;2.63;;
16025;SDS011;8117;52.488;13.460;2023-04-08T14:09:38;4.00;;;2.73;;
16025;SDS011;8117;52.488;13.460;2023-04-08T14:12:13;3.77;;;2.33;;
16025;SDS011;8117;52.488;13.460;2023-04-08T14:14:41;3.27;;;2.00;;
16025;SDS011;8117;52.488;13.460;2023-04-08T14:17:16;4.77;;;2.77;;
16025;SDS011;8117;52.488;13.460;2023-04-08T14:19:47;4.63;;;2.87;;
16025;SDS011;8117;52.488;13.460;2023-04-08T14:22:43;3.67;;;2.00;;
16025;SDS011;8117;52.488;13.460;2023-04-08T14:25:18;4.03;;;2.27;;
16025;SDS011;8117;52.488;13.460;2023-04-08T14:27:55;3.13;;;2.03;;
16025;SDS011;8117;52.488;13.460;2023-04-08T14:44:15;3.43;;;2.67;;
16025;SDS011;8117;52.488;13.460;2023-04-08T15:09:05;2.60;;;1.90;;
16025;SDS011;8117;52.488;13.460;2023-04-08T15:11:32;4.20;;;2.60;;
16025;SDS011;8117;52.488;13.460;2023-04-08T15:13:58;4.10;;;2.60;;
16025;SDS011;8117;52.488;13.460;2023-04-08T15:16:57;3.50;;;2.53;;
16025;SDS011;8117;52.488;13.460;2023-04-08T15:19:27;4.03;;;2.57;;
16025;SDS011;8117;52.488;13.460;2023-04-08T15:21:54;5.17;;;3.27;;
16025;SDS011;8117;52.488;13.460;2023-04-08T15:24:22;5.33;;;2.33;;
16025;SDS011;8117;52.488;13.460;2023-04-08T15:26:55;3.43;;;2.07;;
16025;SDS011;8117;52.488;13.460;2023-04-08T15:29:22;3.83;;;2.73;;
16025;SDS011;8117;52.488;13.460;2023-04-08T15:31:50;2.43;;;2.00;;
16025;SDS011;8117;52.488;13.460;2023-04-08T15:34:19;2.63;;;2.00;;
16025;SDS011;8117;52.488;13.460;2023-04-08T15:36:46;2.33;;;1.70;;
16025;SDS011;8117;52.488;13.460;2023-04-08T15:39:12;3.40;;;2.23;;
16025;SDS011;8117;52.488;13.460;2023-04-08T15:41:41;4.37;;;2.50;;
16025;SDS011;8117;52.488;13.460;2023-04-08T15:44:07;3.20;;;2.33;;
16025;SDS011;8117;52.488;13.460;2023-04-08T15:46:34;4.50;;;2.03;;
16025;SDS011;8117;52.488;13.460;2023-04-08T15:49:01;3.80;;;2.33;;
16025;SDS011;8117;52.488;13.460;2023-04-08T15:51:27;5.70;;;2.67;;
16025;SDS011;8117;52.488;13.460;2023-04-08T15:53:54;4.70;;;2.37;;
16025;SDS011;8117;52.488;13.460;2023-04-08T15:56:21;3.27;;;1.93;;
16025;SDS011;8117;52.488;13.460;2023-04-08T15:58:50;4.20;;;2.60;;